sensor_id;sensor_type;location;lat;lon;timestamp;temperature;humidity
57576;DHT22;43412;-33.800;150.804;2022-11-02T00:00:32;19.20;68.20
57576;DHT22;43412;-33.800;150.804;2022-11-02T00:02:59;19.60;68.20
57576;DHT22;43412;-33.800;150.804;2022-11-02T00:05:26;19.80;70.60
57576;DHT22;43412;-33.800;150.804;2022-11-02T00:07:53;20.10;68.80
57576;DHT22;43412;-33.800;150.804;2022-11-02T00:10:20;20.40;67.00
57576;DHT22;43412;-33.800;150.804;2022-11-02T00:12:47;20.80;65.30
57576;DHT22;43412;-33.800;150.804;2022-11-02T00:15:14;21.10;67.20
57576;DHT22;43412;-33.800;150.804;2022-11-02T00:17:42;21.50;66.60
57576;DHT22;43412;-33.800;150.804;2022-11-02T00:20:10;21.80;68.50
57576;DHT22;43412;-33.800;150.804;2022-11-02T00:22:38;22.10;66.60
57576;DHT22;43412;-33.800;150.804;2022-11-02T00:25:05;22.40;66.80
57576;DHT22;43412;-33.800;150.804;2022-11-02T00:27:32;22.60;66.20
57576;DHT22;43412;-33.800;150.804;2022-11-02T00:29:59;22.50;63.30
57576;DHT22;43412;-33.800;150.804;2022-11-02T00:32:26;22.20;63.20
57576;DHT22;43412;-33.800;150.804;2022-11-02T00:34:53;22.10;64.10
57576;DHT22;43412;-33.800;150.804;2022-11-02T00:37:19;22.00;65.80
57576;DHT22;43412;-33.800;150.804;2022-11-02T00:39:46;22.00;65.20
57576;DHT22;43412;-33.800;150.804;2022-11-02T00:42:13;22.20;65.60
57576;DHT22;43412;-33.800;150.804;2022-11-02T00:44:40;22.00;64.30
57576;DHT22;43412;-33.800;150.804;2022-11-02T00:47:07;22.30;67.20
57576;DHT22;43412;-33.800;150.804;2022-11-02T00:49:34;22.50;66.10
57576;DHT22;43412;-33.800;150.804;2022-11-02T00:52:01;22.70;65.20
57576;DHT22;43412;-33.800;150.804;2022-11-02T00:54:27;22.80;65.60
57576;DHT22;43412;-33.800;150.804;2022-11-02T00:56:54;22.90;66.10
57576;DHT22;43412;-33.800;150.804;2022-11-02T00:59:21;23.10;65.10
57576;DHT22;43412;-33.800;150.804;2022-11-02T01:01:47;23.30;65.10
57576;DHT22;43412;-33.800;150.804;2022-11-02T01:04:15;23.40;63.80
57576;DHT22;43412;-33.800;150.804;2022-11-02T01:06:45;23.10;64.80
57576;DHT22;43412;-33.800;150.804;2022-11-02T01:09:12;23.30;65.00
57576;DHT22;43412;-33.800;150.804;2022-11-02T01:11:39;23.20;63.50
57576;DHT22;43412;-33.800;150.804;2022-11-02T01:14:05;23.30;66.00
57576;DHT22;43412;-33.800;150.804;2022-11-02T01:16:32;23.50;64.40
57576;DHT22;43412;-33.800;150.804;2022-11-02T01:18:59;23.40;62.80
57576;DHT22;43412;-33.800;150.804;2022-11-02T01:21:26;23.40;65.60
57576;DHT22;43412;-33.800;150.804;2022-11-02T01:23:53;23.40;64.20
57576;DHT22;43412;-33.800;150.804;2022-11-02T01:26:20;23.60;64.10
57576;DHT22;43412;-33.800;150.804;2022-11-02T01:28:47;23.70;63.20
57576;DHT22;43412;-33.800;150.804;2022-11-02T01:31:14;23.80;62.70
57576;DHT22;43412;-33.800;150.804;2022-11-02T01:33:44;24.10;65.20
57576;DHT22;43412;-33.800;150.804;2022-11-02T01:36:11;24.30;65.90
57576;DHT22;43412;-33.800;150.804;2022-11-02T01:38:38;24.40;65.30
57576;DHT22;43412;-33.800;150.804;2022-11-02T01:41:04;24.40;64.20
57576;DHT22;43412;-33.800;150.804;2022-11-02T01:43:32;24.60;67.50
57576;DHT22;43412;-33.800;150.804;2022-11-02T01:48:29;24.90;65.10
57576;DHT22;43412;-33.800;150.804;2022-11-02T01:50:56;24.80;64.70
57576;DHT22;43412;-33.800;150.804;2022-11-02T01:53:23;25.00;63.10
57576;DHT22;43412;-33.800;150.804;2022-11-02T01:55:50;25.10;64.30
57576;DHT22;43412;-33.800;150.804;2022-11-02T01:58:17;24.30;61.50
57576;DHT22;43412;-33.800;150.804;2022-11-02T02:00:44;24.10;63.60
57576;DHT22;43412;-33.800;150.804;2022-11-02T02:03:14;24.30;62.70
57576;DHT22;43412;-33.800;150.804;2022-11-02T02:05:44;24.70;65.70
57576;DHT22;43412;-33.800;150.804;2022-11-02T02:08:12;24.90;65.60
57576;DHT22;43412;-33.800;150.804;2022-11-02T02:10:39;24.80;62.90
57576;DHT22;43412;-33.800;150.804;2022-11-02T02:13:06;24.80;62.80
57576;DHT22;43412;-33.800;150.804;2022-11-02T02:15:40;24.90;62.60
57576;DHT22;43412;-33.800;150.804;2022-11-02T02:18:15;24.80;62.90
57576;DHT22;43412;-33.800;150.804;2022-11-02T02:21:29;24.70;63.00
57576;DHT22;43412;-33.800;150.804;2022-11-02T02:31:33;24.10;62.80
57576;DHT22;43412;-33.800;150.804;2022-11-02T02:42:19;24.20;62.60
57576;DHT22;43412;-33.800;150.804;2022-11-02T02:44:52;24.10;63.70
57576;DHT22;43412;-33.800;150.804;2022-11-02T02:47:23;24.30;65.60
57576;DHT22;43412;-33.800;150.804;2022-11-02T02:49:54;24.70;65.00
57576;DHT22;43412;-33.800;150.804;2022-11-02T02:52:21;25.00;65.10
57576;DHT22;43412;-33.800;150.804;2022-11-02T02:54:49;25.20;62.10
57576;DHT22;43412;-33.800;150.804;2022-11-02T02:57:18;25.20;63.10
57576;DHT22;43412;-33.800;150.804;2022-11-02T02:59:46;25.10;63.70
57576;DHT22;43412;-33.800;150.804;2022-11-02T03:02:20;25.10;64.20
57576;DHT22;43412;-33.800;150.804;2022-11-02T03:04:47;25.20;62.60
57576;DHT22;43412;-33.800;150.804;2022-11-02T03:07:16;25.30;63.10
57576;DHT22;43412;-33.800;150.804;2022-11-02T03:12:49;25.00;63.50
57576;DHT22;43412;-33.800;150.804;2022-11-02T03:15:34;24.80;62.50
57576;DHT22;43412;-33.800;150.804;2022-11-02T03:21:04;23.90;61.60
57576;DHT22;43412;-33.800;150.804;2022-11-02T03:31:39;24.10;62.80
57576;DHT22;43412;-33.800;150.804;2022-11-02T03:34:14;24.20;64.30
57576;DHT22;43412;-33.800;150.804;2022-11-02T03:39:11;24.30;61.80
57576;DHT22;43412;-33.800;150.804;2022-11-02T03:41:40;24.10;61.80
57576;DHT22;43412;-33.800;150.804;2022-11-02T03:44:16;24.20;63.10
57576;DHT22;43412;-33.800;150.804;2022-11-02T03:46:45;24.20;63.80
57576;DHT22;43412;-33.800;150.804;2022-11-02T03:49:14;24.20;63.40
57576;DHT22;43412;-33.800;150.804;2022-11-02T03:51:42;24.10;61.90
57576;DHT22;43412;-33.800;150.804;2022-11-02T03:56:44;24.20;61.50
57576;DHT22;43412;-33.800;150.804;2022-11-02T03:59:11;24.20;62.60
57576;DHT22;43412;-33.800;150.804;2022-11-02T04:01:39;24.00;61.80
57576;DHT22;43412;-33.800;150.804;2022-11-02T04:04:07;24.00;62.60
57576;DHT22;43412;-33.800;150.804;2022-11-02T04:06:33;23.70;61.60
57576;DHT22;43412;-33.800;150.804;2022-11-02T04:09:00;23.50;63.10
57576;DHT22;43412;-33.800;150.804;2022-11-02T04:11:27;23.40;64.10
57576;DHT22;43412;-33.800;150.804;2022-11-02T04:14:14;23.50;64.40
57576;DHT22;43412;-33.800;150.804;2022-11-02T04:16:58;23.70;65.70
57576;DHT22;43412;-33.800;150.804;2022-11-02T04:19:43;23.80;64.10
57576;DHT22;43412;-33.800;150.804;2022-11-02T04:22:10;23.80;63.00
57576;DHT22;43412;-33.800;150.804;2022-11-02T04:24:54;23.80;62.80
57576;DHT22;43412;-33.800;150.804;2022-11-02T04:27:39;23.80;64.20
57576;DHT22;43412;-33.800;150.804;2022-11-02T04:30:06;23.70;64.00
57576;DHT22;43412;-33.800;150.804;2022-11-02T04:32:36;23.50;63.80
57576;DHT22;43412;-33.800;150.804;2022-11-02T04:35:21;23.60;64.80
57576;DHT22;43412;-33.800;150.804;2022-11-02T04:37:48;23.50;63.60
57576;DHT22;43412;-33.800;150.804;2022-11-02T04:40:32;23.30;63.90
57576;DHT22;43412;-33.800;150.804;2022-11-02T04:42:59;23.20;64.70
57576;DHT22;43412;-33.800;150.804;2022-11-02T04:45:25;23.30;64.50
57576;DHT22;43412;-33.800;150.804;2022-11-02T04:47:52;23.30;64.90
57576;DHT22;43412;-33.800;150.804;2022-11-02T04:50:24;22.90;63.90
57576;DHT22;43412;-33.800;150.804;2022-11-02T04:52:54;22.30;65.20
57576;DHT22;43412;-33.800;150.804;2022-11-02T04:55:21;22.20;67.20
57576;DHT22;43412;-33.800;150.804;2022-11-02T04:57:48;22.10;65.90
57576;DHT22;43412;-33.800;150.804;2022-11-02T05:00:15;22.00;67.20
57576;DHT22;43412;-33.800;150.804;2022-11-02T05:02:41;22.00;69.40
57576;DHT22;43412;-33.800;150.804;2022-11-02T05:05:08;22.30;70.00
57576;DHT22;43412;-33.800;150.804;2022-11-02T05:07:37;22.40;68.40
57576;DHT22;43412;-33.800;150.804;2022-11-02T05:10:04;22.10;68.70
57576;DHT22;43412;-33.800;150.804;2022-11-02T05:12:30;22.00;65.40
57576;DHT22;43412;-33.800;150.804;2022-11-02T05:14:57;21.80;65.00
57576;DHT22;43412;-33.800;150.804;2022-11-02T05:17:24;21.70;65.80
57576;DHT22;43412;-33.800;150.804;2022-11-02T05:19:50;21.60;65.40
57576;DHT22;43412;-33.800;150.804;2022-11-02T05:22:17;21.50;65.60
57576;DHT22;43412;-33.800;150.804;2022-11-02T05:24:46;21.60;65.10
57576;DHT22;43412;-33.800;150.804;2022-11-02T05:27:12;21.50;65.90
57576;DHT22;43412;-33.800;150.804;2022-11-02T05:29:39;21.50;66.90
57576;DHT22;43412;-33.800;150.804;2022-11-02T05:32:06;21.50;66.10
57576;DHT22;43412;-33.800;150.804;2022-11-02T05:34:32;21.30;65.20
57576;DHT22;43412;-33.800;150.804;2022-11-02T05:36:59;21.30;65.30
57576;DHT22;43412;-33.800;150.804;2022-11-02T05:39:26;21.10;64.50
57576;DHT22;43412;-33.800;150.804;2022-11-02T05:41:52;21.10;65.00
57576;DHT22;43412;-33.800;150.804;2022-11-02T05:44:19;21.00;65.50
57576;DHT22;43412;-33.800;150.804;2022-11-02T05:46:46;20.90;66.10
57576;DHT22;43412;-33.800;150.804;2022-11-02T05:49:12;21.00;67.30
57576;DHT22;43412;-33.800;150.804;2022-11-02T05:51:39;21.00;66.00
57576;DHT22;43412;-33.800;150.804;2022-11-02T05:54:06;21.00;66.20
57576;DHT22;43412;-33.800;150.804;2022-11-02T05:56:32;20.90;67.50
57576;DHT22;43412;-33.800;150.804;2022-11-02T05:59:00;20.90;66.90
57576;DHT22;43412;-33.800;150.804;2022-11-02T06:01:26;20.90;67.20
57576;DHT22;43412;-33.800;150.804;2022-11-02T06:03:53;20.90;67.80
57576;DHT22;43412;-33.800;150.804;2022-11-02T06:06:20;21.00;67.70
57576;DHT22;43412;-33.800;150.804;2022-11-02T06:08:46;21.00;67.60
57576;DHT22;43412;-33.800;150.804;2022-11-02T06:11:13;21.00;68.30
57576;DHT22;43412;-33.800;150.804;2022-11-02T06:13:40;21.10;67.90
57576;DHT22;43412;-33.800;150.804;2022-11-02T06:16:09;20.90;66.30
57576;DHT22;43412;-33.800;150.804;2022-11-02T06:18:36;20.70;67.60
57576;DHT22;43412;-33.800;150.804;2022-11-02T06:21:03;20.40;67.00
57576;DHT22;43412;-33.800;150.804;2022-11-02T06:23:30;20.00;67.30
57576;DHT22;43412;-33.800;150.804;2022-11-02T06:25:57;19.60;67.10
57576;DHT22;43412;-33.800;150.804;2022-11-02T06:28:24;19.40;67.80
57576;DHT22;43412;-33.800;150.804;2022-11-02T06:30:51;19.50;68.50
57576;DHT22;43412;-33.800;150.804;2022-11-02T06:33:21;19.60;67.80
57576;DHT22;43412;-33.800;150.804;2022-11-02T06:35:52;19.60;67.80
57576;DHT22;43412;-33.800;150.804;2022-11-02T06:38:19;19.80;68.00
57576;DHT22;43412;-33.800;150.804;2022-11-02T06:41:01;19.80;67.40
57576;DHT22;43412;-33.800;150.804;2022-11-02T06:43:32;19.90;66.30
57576;DHT22;43412;-33.800;150.804;2022-11-02T06:45:59;19.90;66.80
57576;DHT22;43412;-33.800;150.804;2022-11-02T06:48:26;19.80;66.90
57576;DHT22;43412;-33.800;150.804;2022-11-02T06:50:53;19.80;67.60
57576;DHT22;43412;-33.800;150.804;2022-11-02T06:53:19;19.60;68.60
57576;DHT22;43412;-33.800;150.804;2022-11-02T06:55:55;19.40;69.00
57576;DHT22;43412;-33.800;150.804;2022-11-02T06:58:23;19.30;69.80
57576;DHT22;43412;-33.800;150.804;2022-11-02T07:00:50;19.20;70.40
57576;DHT22;43412;-33.800;150.804;2022-11-02T07:03:21;19.10;71.40
57576;DHT22;43412;-33.800;150.804;2022-11-02T07:05:49;19.10;71.20
57576;DHT22;43412;-33.800;150.804;2022-11-02T07:08:16;18.90;71.20
57576;DHT22;43412;-33.800;150.804;2022-11-02T07:10:43;18.80;72.00
57576;DHT22;43412;-33.800;150.804;2022-11-02T07:13:10;18.70;72.50
57576;DHT22;43412;-33.800;150.804;2022-11-02T07:15:37;18.60;72.60
57576;DHT22;43412;-33.800;150.804;2022-11-02T07:18:04;18.50;72.50
57576;DHT22;43412;-33.800;150.804;2022-11-02T07:20:31;18.30;72.30
57576;DHT22;43412;-33.800;150.804;2022-11-02T07:22:58;18.20;72.80
57576;DHT22;43412;-33.800;150.804;2022-11-02T07:25:27;18.10;73.60
57576;DHT22;43412;-33.800;150.804;2022-11-02T07:27:58;17.90;72.00
57576;DHT22;43412;-33.800;150.804;2022-11-02T07:30:25;17.80;72.30
57576;DHT22;43412;-33.800;150.804;2022-11-02T07:32:52;17.70;72.70
57576;DHT22;43412;-33.800;150.804;2022-11-02T07:35:19;17.60;72.80
57576;DHT22;43412;-33.800;150.804;2022-11-02T07:37:53;17.40;72.80
57576;DHT22;43412;-33.800;150.804;2022-11-02T07:40:20;17.30;73.10
57576;DHT22;43412;-33.800;150.804;2022-11-02T07:42:47;17.20;73.90
57576;DHT22;43412;-33.800;150.804;2022-11-02T07:45:13;17.00;74.20
57576;DHT22;43412;-33.800;150.804;2022-11-02T07:47:43;16.90;73.50
57576;DHT22;43412;-33.800;150.804;2022-11-02T07:50:11;16.90;73.10
57576;DHT22;43412;-33.800;150.804;2022-11-02T07:52:48;16.80;73.00
57576;DHT22;43412;-33.800;150.804;2022-11-02T07:55:16;16.60;73.20
57576;DHT22;43412;-33.800;150.804;2022-11-02T07:57:51;16.60;73.60
57576;DHT22;43412;-33.800;150.804;2022-11-02T08:00:17;16.40;74.70
57576;DHT22;43412;-33.800;150.804;2022-11-02T08:02:44;16.40;74.70
57576;DHT22;43412;-33.800;150.804;2022-11-02T08:05:11;16.30;73.60
57576;DHT22;43412;-33.800;150.804;2022-11-02T08:07:37;16.20;74.10
57576;DHT22;43412;-33.800;150.804;2022-11-02T08:10:04;16.10;74.60
57576;DHT22;43412;-33.800;150.804;2022-11-02T08:12:31;16.00;75.00
57576;DHT22;43412;-33.800;150.804;2022-11-02T08:14:58;15.90;75.10
57576;DHT22;43412;-33.800;150.804;2022-11-02T08:17:24;15.80;75.20
57576;DHT22;43412;-33.800;150.804;2022-11-02T08:19:51;15.70;75.50
57576;DHT22;43412;-33.800;150.804;2022-11-02T08:22:17;15.60;75.90
57576;DHT22;43412;-33.800;150.804;2022-11-02T08:24:44;15.50;76.40
57576;DHT22;43412;-33.800;150.804;2022-11-02T08:27:11;15.50;76.80
57576;DHT22;43412;-33.800;150.804;2022-11-02T08:29:37;15.40;77.00
57576;DHT22;43412;-33.800;150.804;2022-11-02T08:32:04;15.40;76.70
57576;DHT22;43412;-33.800;150.804;2022-11-02T08:34:31;15.30;76.40
57576;DHT22;43412;-33.800;150.804;2022-11-02T08:36:58;15.30;76.50
57576;DHT22;43412;-33.800;150.804;2022-11-02T08:39:24;15.20;76.70
57576;DHT22;43412;-33.800;150.804;2022-11-02T08:41:51;15.10;76.90
57576;DHT22;43412;-33.800;150.804;2022-11-02T08:44:17;15.10;76.40
57576;DHT22;43412;-33.800;150.804;2022-11-02T08:46:44;15.10;76.60
57576;DHT22;43412;-33.800;150.804;2022-11-02T08:49:11;15.00;76.70
57576;DHT22;43412;-33.800;150.804;2022-11-02T08:51:37;15.00;77.00
57576;DHT22;43412;-33.800;150.804;2022-11-02T08:54:04;14.90;77.10
57576;DHT22;43412;-33.800;150.804;2022-11-02T08:56:31;14.90;77.10
57576;DHT22;43412;-33.800;150.804;2022-11-02T08:58:57;14.80;77.70
57576;DHT22;43412;-33.800;150.804;2022-11-02T09:01:24;14.80;77.30
57576;DHT22;43412;-33.800;150.804;2022-11-02T09:03:51;14.80;77.20
57576;DHT22;43412;-33.800;150.804;2022-11-02T09:06:17;14.70;76.90
57576;DHT22;43412;-33.800;150.804;2022-11-02T09:08:44;14.70;77.20
57576;DHT22;43412;-33.800;150.804;2022-11-02T09:11:11;14.60;77.70
57576;DHT22;43412;-33.800;150.804;2022-11-02T09:13:37;14.60;77.90
57576;DHT22;43412;-33.800;150.804;2022-11-02T09:16:04;14.50;78.00
57576;DHT22;43412;-33.800;150.804;2022-11-02T09:18:31;14.50;78.20
57576;DHT22;43412;-33.800;150.804;2022-11-02T09:21:01;14.40;78.50
57576;DHT22;43412;-33.800;150.804;2022-11-02T09:23:28;14.40;78.70
57576;DHT22;43412;-33.800;150.804;2022-11-02T09:25:55;14.40;79.00
57576;DHT22;43412;-33.800;150.804;2022-11-02T09:28:22;14.20;79.20
57576;DHT22;43412;-33.800;150.804;2022-11-02T09:30:49;14.20;79.30
57576;DHT22;43412;-33.800;150.804;2022-11-02T09:33:16;14.10;79.70
57576;DHT22;43412;-33.800;150.804;2022-11-02T09:35:43;14.10;80.10
57576;DHT22;43412;-33.800;150.804;2022-11-02T09:38:10;14.00;80.10
57576;DHT22;43412;-33.800;150.804;2022-11-02T09:40:42;14.00;80.60
57576;DHT22;43412;-33.800;150.804;2022-11-02T09:43:16;13.90;80.40
57576;DHT22;43412;-33.800;150.804;2022-11-02T09:48:17;13.80;80.80
57576;DHT22;43412;-33.800;150.804;2022-11-02T09:51:06;13.80;81.90
57576;DHT22;43412;-33.800;150.804;2022-11-02T09:56:18;13.70;82.00
57576;DHT22;43412;-33.800;150.804;2022-11-02T09:58:46;13.60;82.60
57576;DHT22;43412;-33.800;150.804;2022-11-02T10:01:26;13.60;82.40
57576;DHT22;43412;-33.800;150.804;2022-11-02T10:06:40;13.60;82.30
57576;DHT22;43412;-33.800;150.804;2022-11-02T10:09:18;13.70;81.90
57576;DHT22;43412;-33.800;150.804;2022-11-02T10:11:59;13.60;82.00
57576;DHT22;43412;-33.800;150.804;2022-11-02T10:14:29;13.70;82.70
57576;DHT22;43412;-33.800;150.804;2022-11-02T10:17:16;13.60;82.30
57576;DHT22;43412;-33.800;150.804;2022-11-02T10:19:45;13.60;82.90
57576;DHT22;43412;-33.800;150.804;2022-11-02T10:22:15;13.50;83.10
57576;DHT22;43412;-33.800;150.804;2022-11-02T10:24:45;13.40;84.40
57576;DHT22;43412;-33.800;150.804;2022-11-02T10:27:16;13.40;84.70
57576;DHT22;43412;-33.800;150.804;2022-11-02T10:29:53;13.30;84.30
57576;DHT22;43412;-33.800;150.804;2022-11-02T10:32:20;13.30;84.30
57576;DHT22;43412;-33.800;150.804;2022-11-02T10:34:46;13.30;84.50
57576;DHT22;43412;-33.800;150.804;2022-11-02T10:42:16;13.20;84.40
57576;DHT22;43412;-33.800;150.804;2022-11-02T10:44:56;13.20;84.10
57576;DHT22;43412;-33.800;150.804;2022-11-02T10:47:29;13.20;84.20
57576;DHT22;43412;-33.800;150.804;2022-11-02T10:52:42;13.20;84.60
57576;DHT22;43412;-33.800;150.804;2022-11-02T10:55:16;13.20;84.50
57576;DHT22;43412;-33.800;150.804;2022-11-02T10:57:45;13.20;84.90
57576;DHT22;43412;-33.800;150.804;2022-11-02T11:00:22;13.20;84.70
57576;DHT22;43412;-33.800;150.804;2022-11-02T11:03:05;13.20;84.30
57576;DHT22;43412;-33.800;150.804;2022-11-02T11:05:33;13.20;84.40
57576;DHT22;43412;-33.800;150.804;2022-11-02T11:08:01;13.20;84.10
57576;DHT22;43412;-33.800;150.804;2022-11-02T11:10:29;13.20;83.70
57576;DHT22;43412;-33.800;150.804;2022-11-02T11:12:57;13.20;84.30
57576;DHT22;43412;-33.800;150.804;2022-11-02T11:15:24;13.20;84.30
57576;DHT22;43412;-33.800;150.804;2022-11-02T11:17:52;13.20;84.40
57576;DHT22;43412;-33.800;150.804;2022-11-02T11:20:26;13.10;84.50
57576;DHT22;43412;-33.800;150.804;2022-11-02T11:25:40;13.00;84.90
57576;DHT22;43412;-33.800;150.804;2022-11-02T11:28:24;12.90;84.70
57576;DHT22;43412;-33.800;150.804;2022-11-02T11:31:01;12.90;85.10
57576;DHT22;43412;-33.800;150.804;2022-11-02T11:33:29;12.80;85.60
57576;DHT22;43412;-33.800;150.804;2022-11-02T11:35:57;12.80;85.40
57576;DHT22;43412;-33.800;150.804;2022-11-02T11:38:24;12.80;85.70
57576;DHT22;43412;-33.800;150.804;2022-11-02T11:40:56;12.70;85.70
57576;DHT22;43412;-33.800;150.804;2022-11-02T11:43:25;12.80;85.50
57576;DHT22;43412;-33.800;150.804;2022-11-02T11:45:57;12.70;85.80
57576;DHT22;43412;-33.800;150.804;2022-11-02T11:56:36;12.70;86.20
57576;DHT22;43412;-33.800;150.804;2022-11-02T11:59:02;12.70;86.50
57576;DHT22;43412;-33.800;150.804;2022-11-02T12:01:37;12.60;87.40
57576;DHT22;43412;-33.800;150.804;2022-11-02T12:04:04;12.50;88.50
57576;DHT22;43412;-33.800;150.804;2022-11-02T12:06:37;12.40;89.40
57576;DHT22;43412;-33.800;150.804;2022-11-02T12:09:23;12.40;89.30
57576;DHT22;43412;-33.800;150.804;2022-11-02T12:24:46;12.20;89.60
57576;DHT22;43412;-33.800;150.804;2022-11-02T12:37:26;11.70;91.70
57576;DHT22;43412;-33.800;150.804;2022-11-02T12:42:34;11.60;91.20
57576;DHT22;43412;-33.800;150.804;2022-11-02T12:45:09;11.50;91.20
57576;DHT22;43412;-33.800;150.804;2022-11-02T12:55:59;11.30;92.10
57576;DHT22;43412;-33.800;150.804;2022-11-02T12:58:30;11.30;92.20
57576;DHT22;43412;-33.800;150.804;2022-11-02T13:01:06;11.30;92.10
57576;DHT22;43412;-33.800;150.804;2022-11-02T13:06:18;11.20;92.40
57576;DHT22;43412;-33.800;150.804;2022-11-02T13:08:48;11.20;92.80
57576;DHT22;43412;-33.800;150.804;2022-11-02T13:14:10;11.10;93.00
57576;DHT22;43412;-33.800;150.804;2022-11-02T13:16:40;11.10;93.30
57576;DHT22;43412;-33.800;150.804;2022-11-02T13:19:17;11.00;93.40
57576;DHT22;43412;-33.800;150.804;2022-11-02T13:21:47;11.00;93.30
57576;DHT22;43412;-33.800;150.804;2022-11-02T13:24:16;10.90;93.40
57576;DHT22;43412;-33.800;150.804;2022-11-02T13:26:44;10.90;93.70
57576;DHT22;43412;-33.800;150.804;2022-11-02T13:32:21;10.80;93.70
57576;DHT22;43412;-33.800;150.804;2022-11-02T13:34:47;10.80;94.10
57576;DHT22;43412;-33.800;150.804;2022-11-02T13:37:16;10.80;93.90
57576;DHT22;43412;-33.800;150.804;2022-11-02T13:39:45;10.70;93.90
57576;DHT22;43412;-33.800;150.804;2022-11-02T13:50:19;10.60;94.90
57576;DHT22;43412;-33.800;150.804;2022-11-02T13:53:00;10.60;94.90
57576;DHT22;43412;-33.800;150.804;2022-11-02T13:58:03;10.50;95.30
57576;DHT22;43412;-33.800;150.804;2022-11-02T14:00:34;10.50;95.20
57576;DHT22;43412;-33.800;150.804;2022-11-02T14:03:10;10.40;95.40
57576;DHT22;43412;-33.800;150.804;2022-11-02T14:05:47;10.30;95.50
57576;DHT22;43412;-33.800;150.804;2022-11-02T14:08:28;10.30;95.90
57576;DHT22;43412;-33.800;150.804;2022-11-02T14:11:20;10.40;96.20
57576;DHT22;43412;-33.800;150.804;2022-11-02T14:26:58;10.10;97.10
57576;DHT22;43412;-33.800;150.804;2022-11-02T14:32:16;10.10;97.40
57576;DHT22;43412;-33.800;150.804;2022-11-02T14:35:11;10.10;97.60
57576;DHT22;43412;-33.800;150.804;2022-11-02T14:37:47;10.00;97.90
57576;DHT22;43412;-33.800;150.804;2022-11-02T14:40:24;10.00;98.00
57576;DHT22;43412;-33.800;150.804;2022-11-02T14:45:26;9.90;98.40
57576;DHT22;43412;-33.800;150.804;2022-11-02T14:47:59;9.90;98.40
57576;DHT22;43412;-33.800;150.804;2022-11-02T14:50:27;9.80;98.60
57576;DHT22;43412;-33.800;150.804;2022-11-02T14:55:27;9.80;98.80
57576;DHT22;43412;-33.800;150.804;2022-11-02T15:00:22;9.90;98.50
57576;DHT22;43412;-33.800;150.804;2022-11-02T15:02:49;9.90;98.90
57576;DHT22;43412;-33.800;150.804;2022-11-02T15:07:48;9.90;99.00
57576;DHT22;43412;-33.800;150.804;2022-11-02T15:12:43;9.80;99.00
57576;DHT22;43412;-33.800;150.804;2022-11-02T15:15:30;9.80;99.40
57576;DHT22;43412;-33.800;150.804;2022-11-02T15:17:58;9.80;99.70
57576;DHT22;43412;-33.800;150.804;2022-11-02T15:20:27;9.70;99.80
57576;DHT22;43412;-33.800;150.804;2022-11-02T15:23:27;9.70;99.90
57576;DHT22;43412;-33.800;150.804;2022-11-02T15:25:48;9.60;99.90
57576;DHT22;43412;-33.800;150.804;2022-11-02T15:28:22;9.60;99.90
57576;DHT22;43412;-33.800;150.804;2022-11-02T15:30:50;9.60;99.90
57576;DHT22;43412;-33.800;150.804;2022-11-02T15:33:33;9.60;99.90
57576;DHT22;43412;-33.800;150.804;2022-11-02T15:36:00;9.50;99.90
57576;DHT22;43412;-33.800;150.804;2022-11-02T15:38:28;9.50;99.90
57576;DHT22;43412;-33.800;150.804;2022-11-02T15:48:40;9.30;99.90
57576;DHT22;43412;-33.800;150.804;2022-11-02T15:58:54;9.30;99.90
57576;DHT22;43412;-33.800;150.804;2022-11-02T16:01:28;9.30;99.90
57576;DHT22;43412;-33.800;150.804;2022-11-02T16:03:59;9.30;99.90
57576;DHT22;43412;-33.800;150.804;2022-11-02T16:08:59;9.30;99.90
57576;DHT22;43412;-33.800;150.804;2022-11-02T16:11:26;9.30;99.90
57576;DHT22;43412;-33.800;150.804;2022-11-02T16:14:07;9.30;99.90
57576;DHT22;43412;-33.800;150.804;2022-11-02T16:16:47;9.30;99.90
57576;DHT22;43412;-33.800;150.804;2022-11-02T16:19:20;9.30;99.90
57576;DHT22;43412;-33.800;150.804;2022-11-02T16:21:50;9.30;99.90
57576;DHT22;43412;-33.800;150.804;2022-11-02T16:24:17;9.30;99.90
57576;DHT22;43412;-33.800;150.804;2022-11-02T16:26:44;9.40;99.90
57576;DHT22;43412;-33.800;150.804;2022-11-02T16:29:16;9.30;99.90
57576;DHT22;43412;-33.800;150.804;2022-11-02T16:31:46;9.30;99.90
57576;DHT22;43412;-33.800;150.804;2022-11-02T16:34:17;9.20;99.90
57576;DHT22;43412;-33.800;150.804;2022-11-02T16:36:45;9.20;99.90
57576;DHT22;43412;-33.800;150.804;2022-11-02T16:41:54;9.20;99.90
57576;DHT22;43412;-33.800;150.804;2022-11-02T16:44:25;9.30;99.90
57576;DHT22;43412;-33.800;150.804;2022-11-02T16:46:59;9.30;99.90
57576;DHT22;43412;-33.800;150.804;2022-11-02T16:52:24;9.20;99.90
57576;DHT22;43412;-33.800;150.804;2022-11-02T16:54:52;9.20;99.90
57576;DHT22;43412;-33.800;150.804;2022-11-02T16:57:23;9.20;99.90
57576;DHT22;43412;-33.800;150.804;2022-11-02T16:59:54;9.20;99.90
57576;DHT22;43412;-33.800;150.804;2022-11-02T17:02:29;9.20;99.90
57576;DHT22;43412;-33.800;150.804;2022-11-02T17:04:57;9.10;99.90
57576;DHT22;43412;-33.800;150.804;2022-11-02T17:07:26;9.10;99.90
57576;DHT22;43412;-33.800;150.804;2022-11-02T17:09:55;9.10;99.90
57576;DHT22;43412;-33.800;150.804;2022-11-02T17:12:27;9.00;99.90
57576;DHT22;43412;-33.800;150.804;2022-11-02T17:14:54;9.00;99.90
57576;DHT22;43412;-33.800;150.804;2022-11-02T17:22:35;9.10;99.90
57576;DHT22;43412;-33.800;150.804;2022-11-02T17:27:29;9.30;99.90
57576;DHT22;43412;-33.800;150.804;2022-11-02T17:29:58;9.30;99.90
57576;DHT22;43412;-33.800;150.804;2022-11-02T17:32:25;9.30;99.90
57576;DHT22;43412;-33.800;150.804;2022-11-02T17:34:52;9.30;99.90
57576;DHT22;43412;-33.800;150.804;2022-11-02T17:37:30;9.30;99.90
57576;DHT22;43412;-33.800;150.804;2022-11-02T17:40:00;9.30;99.90
57576;DHT22;43412;-33.800;150.804;2022-11-02T17:42:27;9.30;99.90
57576;DHT22;43412;-33.800;150.804;2022-11-02T17:45:25;9.30;99.90
57576;DHT22;43412;-33.800;150.804;2022-11-02T17:47:53;9.20;99.90
57576;DHT22;43412;-33.800;150.804;2022-11-02T17:50:21;9.20;99.90
57576;DHT22;43412;-33.800;150.804;2022-11-02T17:52:48;9.10;99.90
57576;DHT22;43412;-33.800;150.804;2022-11-02T17:55:16;9.10;99.90
57576;DHT22;43412;-33.800;150.804;2022-11-02T17:57:43;9.10;99.90
57576;DHT22;43412;-33.800;150.804;2022-11-02T18:00:10;9.00;99.90
57576;DHT22;43412;-33.800;150.804;2022-11-02T18:02:38;9.00;99.90